Time;durP1;ratioP1;P1;durP2;ratioP2;P2;SDS_P1;SDS_P2;PMS_P1;PMS_P2;Temp;Humidity;BMP_temperature;BMP_pressure;BME280_temperature;BME280_humidity;BME280_pressure;Samples;Min_cycle;Max_cycle;Signal;HPM_P1;HPM_P2
2022/05/09 00:01:39;;;;;;;9.13;2.88;;;7.60;86.40;;;;;;5041130;28;20029;-59
2022/05/09 00:04:05;;;;;;;7.47;2.70;;;7.50;87.70;;;;;;5037564;28;20378;-60
2022/05/09 00:06:31;;;;;;;6.25;2.15;;;7.50;87.20;;;;;;5043406;28;20167;-60
2022/05/09 00:08:56;;;;;;;6.50;2.50;;;7.50;86.90;;;;;;5039411;28;20120;-60
2022/05/09 00:11:22;;;;;;;6.38;2.70;;;7.50;87.50;;;;;;5037137;28;20053;-61
2022/05/09 00:13:48;;;;;;;7.70;2.65;;;7.50;86.60;;;;;;5046773;28;20511;-61
2022/05/09 00:16:14;;;;;;;8.35;2.42;;;7.40;87.70;;;;;;5048792;28;20043;-59
2022/05/09 00:18:40;;;;;;;13.10;3.13;;;7.30;87.80;;;;;;5029184;28;20033;-59
2022/05/09 00:21:05;;;;;;;5.38;3.33;;;7.20;88.80;;;;;;5039720;28;20043;-59
2022/05/09 00:23:31;;;;;;;16.30;3.53;;;7.20;88.90;;;;;;5037480;28;20022;-60
2022/05/09 00:25:57;;;;;;;10.70;2.70;;;7.20;89.70;;;;;;5036413;28;20033;-60
2022/05/09 00:28:23;;;;;;;9.20;3.17;;;7.20;88.20;;;;;;5049789;28;20025;-59
2022/05/09 00:30:49;;;;;;;6.43;2.42;;;7.20;89.50;;;;;;5028925;28;20036;-59
2022/05/09 00:33:14;;;;;;;4.68;1.95;;;7.10;88.90;;;;;;5035893;28;20083;-60
2022/05/09 00:35:44;;;;;;;6.35;2.15;;;7.20;88.30;;;;;;5032875;28;20033;-59
2022/05/09 00:38:10;;;;;;;9.30;3.13;;;7.20;87.90;;;;;;5029868;28;20396;-60
2022/05/09 00:40:37;;;;;;;8.63;3.47;;;7.20;90.10;;;;;;5039502;28;20033;-60
2022/05/09 00:43:23;;;;;;;10.02;3.55;;;7.10;90.50;;;;;;5029733;28;20029;-60
2022/05/09 00:45:49;;;;;;;9.90;3.53;;;7.10;91.00;;;;;;5034186;28;20029;-60
2022/05/09 00:48:15;;;;;;;10.15;3.60;;;7.00;91.20;;;;;;5044796;28;20029;-60
2022/05/09 00:50:41;;;;;;;13.45;4.32;;;7.00;91.10;;;;;;5038373;28;20132;-60
2022/05/09 00:53:08;;;;;;;13.20;4.43;;;6.60;90.90;;;;;;5037728;28;20540;-59
2022/05/09 00:55:41;;;;;;;10.55;3.55;;;7.00;91.10;;;;;;5027149;28;20116;-60
2022/05/09 00:58:42;;;;;;;10.10;4.45;;;7.00;91.30;;;;;;5040756;28;20396;-60
2022/05/09 01:01:11;;;;;;;10.00;3.43;;;7.00;91.00;;;;;;5012494;28;20043;-59
2022/05/09 01:03:45;;;;;;;6.85;3.38;;;6.80;91.10;;;;;;5037312;28;20025;-59
2022/05/09 01:06:12;;;;;;;8.25;3.60;;;6.80;91.40;;;;;;5037401;28;20037;-59
2022/05/09 01:08:38;;;;;;;11.50;4.18;;;6.70;91.70;;;;;;5041241;28;20029;-59
2022/05/09 01:11:10;;;;;;;15.50;4.22;;;6.70;91.90;;;;;;5039317;28;20473;-60
2022/05/09 01:13:42;;;;;;;7.85;4.07;;;6.70;92.00;;;;;;5030062;28;20044;-59
2022/05/09 01:16:09;;;;;;;14.18;4.00;;;6.60;91.90;;;;;;5043509;28;20488;-59
2022/05/09 01:18:36;;;;;;;7.63;3.10;;;6.60;91.80;;;;;;5036821;28;20041;-59
2022/05/09 01:21:07;;;;;;;9.73;3.25;;;6.60;91.80;;;;;;5038919;28;20890;-59
2022/05/09 01:23:34;;;;;;;9.93;3.83;;;6.70;91.90;;;;;;5037327;28;20388;-59
2022/05/09 01:26:00;;;;;;;8.40;4.38;;;6.60;92.10;;;;;;5037793;28;20069;-60
2022/05/09 01:28:27;;;;;;;13.20;4.22;;;6.70;92.00;;;;;;5033334;28;20061;-59
2022/05/09 01:31:01;;;;;;;10.40;3.40;;;6.70;92.00;;;;;;5037639;28;20030;-59
2022/05/09 01:33:38;;;;;;;13.65;4.13;;;6.70;91.80;;;;;;5049141;28;20037;-59
2022/05/09 01:36:15;;;;;;;8.10;3.53;;;6.70;91.90;;;;;;5027479;28;20032;-59
2022/05/09 01:39:05;;;;;;;8.25;3.63;;;6.70;91.80;;;;;;5037521;28;20396;-59
2022/05/09 01:41:37;;;;;;;7.38;3.60;;;6.70;92.00;;;;;;5028909;28;20025;-59
2022/05/09 01:44:03;;;;;;;;;;;6.70;91.90;;;;;;5037012;28;20116;-59
2022/05/09 01:46:30;;;;;;;5.63;3.53;;;6.60;92.00;;;;;;5045094;28;20008;-59
2022/05/09 01:51:43;;;;;;;11.10;4.18;;;6.60;92.20;;;;;;5036833;28;20415;-59
2022/05/09 01:54:10;;;;;;;6.60;3.88;;;6.60;92.20;;;;;;5017853;28;20029;-59
2022/05/09 01:56:38;;;;;;;6.50;3.55;;;6.60;92.10;;;;;;5045564;28;20040;-59
2022/05/09 01:59:06;;;;;;;9.75;4.20;;;6.60;92.00;;;;;;5042394;28;20041;-59
2022/05/09 02:01:41;;;;;;;8.48;4.13;;;6.60;92.10;;;;;;5049559;28;20055;-59
2022/05/09 02:04:07;;;;;;;12.00;4.75;;;6.60;92.20;;;;;;5043705;28;20036;-59
2022/05/09 02:06:33;;;;;;;10.15;4.85;;;6.60;92.20;;;;;;5045867;28;20036;-59
2022/05/09 02:08:59;;;;;;;9.98;4.03;;;6.60;92.10;;;;;;5041343;28;20033;-59
2022/05/09 02:11:24;;;;;;;11.68;4.50;;;6.60;92.10;;;;;;5040893;28;20038;-59
2022/05/09 02:13:50;;;;;;;12.07;4.63;;;6.60;92.30;;;;;;5022550;28;20102;-59
2022/05/09 02:16:16;;;;;;;8.38;4.20;;;6.60;92.40;;;;;;5042965;28;20033;-59
2022/05/09 02:18:43;;;;;;;9.48;3.83;;;6.60;92.30;;;;;;5039252;28;20025;-59
2022/05/09 02:21:08;;;;;;;13.85;4.15;;;6.60;91.90;;;;;;5040389;28;20455;-59
2022/05/09 02:23:34;;;;;;;7.38;3.83;;;6.60;91.80;;;;;;5045212;28;20144;-59
2022/05/09 02:26:01;;;;;;;15.30;4.20;;;6.60;91.80;;;;;;5041294;28;20472;-60
2022/05/09 02:28:27;;;;;;;7.15;4.10;;;6.60;92.20;;;;;;5038288;28;20040;-60
2022/05/09 02:30:52;;;;;;;13.50;4.57;;;6.50;92.30;;;;;;5046481;28;20029;-59
2022/05/09 02:33:18;;;;;;;8.02;3.38;;;6.50;92.30;;;;;;5026151;28;20038;-59
2022/05/09 02:35:44;;;;;;;10.00;4.07;;;6.50;92.10;;;;;;5041651;28;20029;-59
2022/05/09 02:38:10;;;;;;;11.73;4.82;;;6.40;92.20;;;;;;5038154;28;20394;-59
2022/05/09 02:40:37;;;;;;;10.45;4.35;;;6.30;92.90;;;;;;5033756;28;20033;-59
2022/05/09 02:43:03;;;;;;;8.57;4.07;;;6.40;92.90;;;;;;5038332;28;20041;-59
2022/05/09 02:45:29;;;;;;;8.30;3.65;;;6.40;92.80;;;;;;5033285;28;20030;-59
2022/05/09 02:47:56;;;;;;;11.38;4.07;;;6.50;92.70;;;;;;5043023;28;20063;-58
2022/05/09 02:50:24;;;;;;;10.25;3.88;;;6.50;92.70;;;;;;5038145;28;20080;-59
2022/05/09 02:52:51;;;;;;;13.05;4.18;;;6.50;92.70;;;;;;5039574;28;20030;-58
2022/05/09 02:55:18;;;;;;;17.00;4.65;;;6.50;92.70;;;;;;5041703;28;20025;-59
2022/05/09 02:57:44;;;;;;;9.15;4.07;;;6.40;92.70;;;;;;5044903;28;20112;-59
2022/05/09 03:00:21;;;;;;;8.02;3.67;;;6.40;92.60;;;;;;5041676;28;20080;-59
2022/05/09 03:05:33;;;;;;;7.88;4.10;;;6.20;92.30;;;;;;5037495;28;20083;-59
2022/05/09 03:07:58;;;;;;;7.72;4.10;;;6.20;93.10;;;;;;5048596;28;20397;-60
2022/05/09 03:10:28;;;;;;;14.20;5.20;;;6.10;93.40;;;;;;5038571;28;20029;-59
2022/05/09 03:12:56;;;;;;;11.30;4.53;;;6.10;93.50;;;;;;5031682;28;20042;-59
2022/05/09 03:15:21;;;;;;;9.73;4.45;;;6.20;93.50;;;;;;5033852;28;20389;-59
2022/05/09 03:17:47;;;;;;;12.00;4.18;;;6.20;93.20;;;;;;5036903;28;20034;-59
2022/05/09 03:20:13;;;;;;;8.57;4.20;;;6.20;93.10;;;;;;5042663;28;20155;-59
2022/05/09 03:22:38;;;;;;;11.95;3.85;;;6.20;92.80;;;;;;5043669;28;20044;-59
2022/05/09 03:25:05;;;;;;;9.77;4.00;;;6.20;92.90;;;;;;5034156;28;20048;-60
2022/05/09 03:27:30;;;;;;;8.90;4.55;;;6.10;93.10;;;;;;5031949;28;20033;-59
2022/05/09 03:29:56;;;;;;;13.73;4.75;;;6.10;93.40;;;;;;5039405;28;20029;-59
2022/05/09 03:32:22;;;;;;;6.97;4.38;;;6.10;93.60;;;;;;5039103;28;20034;-59
2022/05/09 03:34:47;;;;;;;13.63;4.00;;;6.10;93.70;;;;;;5036794;28;20072;-58
2022/05/09 03:37:13;;;;;;;8.57;3.90;;;6.20;93.40;;;;;;5039367;28;20030;-59
2022/05/09 03:39:39;;;;;;;8.95;4.40;;;6.10;93.20;;;;;;5040701;28;20116;-59
2022/05/09 03:42:06;;;;;;;7.53;3.75;;;6.10;93.20;;;;;;5031946;28;20034;-59
2022/05/09 03:44:32;;;;;;;10.35;4.53;;;6.00;93.40;;;;;;5042116;28;20055;-59
2022/05/09 03:46:58;;;;;;;12.20;4.55;;;6.00;93.40;;;;;;5029089;28;20044;-58
2022/05/09 03:49:25;;;;;;;11.85;4.78;;;5.90;93.40;;;;;;5033083;28;20112;-58
2022/05/09 03:51:50;;;;;;;8.82;5.13;;;5.90;93.30;;;;;;5041654;28;20028;-58
2022/05/09 03:54:16;;;;;;;12.90;4.22;;;5.90;93.50;;;;;;5033890;28;20040;-58
2022/05/09 03:56:42;;;;;;;12.82;4.35;;;5.90;93.80;;;;;;5033685;28;20076;-58
2022/05/09 03:59:08;;;;;;;7.97;3.63;;;5.90;93.70;;;;;;5032556;28;20037;-58
2022/05/09 04:01:34;;;;;;;6.50;3.67;;;5.90;92.90;;;;;;5034954;28;20112;-58
2022/05/09 04:04:00;;;;;;;9.00;4.15;;;5.90;92.60;;;;;;5042092;28;20432;-59
2022/05/09 04:06:26;;;;;;;8.75;4.43;;;5.90;93.20;;;;;;5037639;28;20040;-59
2022/05/09 04:08:52;;;;;;;10.23;4.07;;;5.80;93.40;;;;;;5045527;28;20033;-58
2022/05/09 04:11:18;;;;;;;7.90;4.05;;;5.80;93.40;;;;;;5032394;28;20172;-58
2022/05/09 04:13:45;;;;;;;10.27;3.88;;;5.70;93.10;;;;;;5031570;28;20037;-58
2022/05/09 04:18:59;;;;;;;7.10;3.40;;;5.60;93.30;;;;;;5037909;28;20071;-58
2022/05/09 04:21:26;;;;;;;7.50;4.53;;;5.60;93.30;;;;;;5032106;28;20034;-59
2022/05/09 04:23:58;;;;;;;11.55;4.63;;;5.50;93.70;;;;;;5046113;28;20036;-59
2022/05/09 04:26:25;;;;;;;9.30;4.00;;;5.50;93.70;;;;;;5040975;28;20025;-59
2022/05/09 04:28:51;;;;;;;6.78;4.25;;;5.50;93.90;;;;;;5040157;28;20024;-59
2022/05/09 04:31:19;;;;;;;7.50;3.92;;;5.60;93.60;;;;;;5027856;28;20041;-59
2022/05/09 04:33:45;;;;;;;10.80;3.90;;;5.60;93.40;;;;;;5033787;28;20087;-59
2022/05/09 04:36:11;;;;;;;10.02;4.18;;;5.70;93.20;;;;;;5049200;28;20040;-59
2022/05/09 04:38:40;;;;;;;12.50;3.92;;;5.70;93.10;;;;;;5038554;28;20021;-59
2022/05/09 04:41:06;;;;;;;6.10;3.80;;;5.70;93.00;;;;;;5036631;28;20033;-59
2022/05/09 04:43:33;;;;;;;9.93;4.38;;;5.70;93.00;;;;;;5041584;28;20113;-58
2022/05/09 04:46:00;;;;;;;11.73;3.72;;;5.60;92.40;;;;;;5027678;28;20018;-59
2022/05/09 04:48:27;;;;;;;8.75;4.10;;;5.60;92.70;;;;;;5037549;28;20025;-60
2022/05/09 04:50:53;;;;;;;6.85;3.72;;;5.60;92.70;;;;;;5030441;28;20465;-60
2022/05/09 04:53:19;;;;;;;11.63;3.65;;;5.50;92.70;;;;;;5042796;28;20045;-59
2022/05/09 04:55:46;;;;;;;9.27;3.85;;;5.60;92.90;;;;;;5028232;28;20462;-60
2022/05/09 04:58:19;;;;;;;11.10;4.13;;;5.60;92.90;;;;;;5034132;28;20025;-60
2022/05/09 05:00:45;;;;;;;7.85;4.07;;;5.70;92.90;;;;;;5033224;28;20018;-60
2022/05/09 05:03:11;;;;;;;10.20;4.60;;;5.80;92.70;;;;;;5035830;28;20040;-60
2022/05/09 05:05:38;;;;;;;9.00;3.88;;;5.90;92.70;;;;;;5037116;28;20465;-59
2022/05/09 05:08:04;;;;;;;15.73;6.00;;;5.90;92.50;;;;;;5031143;28;20068;-61
2022/05/09 05:10:30;;;;;;;6.85;3.92;;;6.00;92.40;;;;;;5038214;28;20031;-60
2022/05/09 05:12:58;;;;;;;11.73;4.35;;;6.10;92.30;;;;;;5035154;28;20396;-61
2022/05/09 05:15:25;;;;;;;10.15;4.60;;;6.10;92.00;;;;;;5034811;28;20416;-60
2022/05/09 05:17:50;;;;;;;11.55;3.90;;;6.20;92.10;;;;;;5035940;28;20028;-61
2022/05/09 05:20:17;;;;;;;9.48;4.22;;;6.20;91.90;;;;;;5038304;28;20060;-61
2022/05/09 05:22:47;;;;;;;7.25;4.65;;;6.20;92.00;;;;;;5040567;28;20468;-61
2022/05/09 05:25:14;;;;;;;8.93;4.07;;;6.20;92.00;;;;;;5033170;28;20488;-60
2022/05/09 05:27:40;;;;;;;7.75;5.05;;;6.30;92.00;;;;;;5038247;28;20040;-58
2022/05/09 05:30:08;;;;;;;9.63;4.10;;;6.30;92.10;;;;;;5042522;28;20388;-59
2022/05/09 05:32:36;;;;;;;8.25;4.18;;;6.30;91.70;;;;;;5030482;28;20446;-58
2022/05/09 05:35:04;;;;;;;6.28;3.67;;;6.50;91.80;;;;;;5031697;28;20503;-59
2022/05/09 05:37:30;;;;;;;9.40;4.35;;;6.60;91.80;;;;;;5041294;28;20119;-58
2022/05/09 05:39:57;;;;;;;9.98;3.47;;;6.60;91.70;;;;;;5040946;28;20085;-58
2022/05/09 05:42:23;;;;;;;10.43;3.78;;;6.60;91.70;;;;;;5035838;28;20044;-58
2022/05/09 05:44:49;;;;;;;7.38;3.90;;;6.60;91.70;;;;;;5032924;28;20107;-59
2022/05/09 05:47:18;;;;;;;8.68;4.30;;;6.70;91.60;;;;;;5038732;28;20350;-58
2022/05/09 05:49:44;;;;;;;8.93;3.97;;;6.80;91.60;;;;;;5024263;28;20109;-58
2022/05/09 05:52:11;;;;;;;7.45;4.38;;;6.90;91.50;;;;;;5041165;28;20029;-59
2022/05/09 05:54:40;;;;;;;11.05;4.20;;;6.90;91.30;;;;;;5033116;28;20029;-59
2022/05/09 05:57:19;;;;;;;11.07;4.78;;;7.00;91.30;;;;;;5032218;28;20068;-59
2022/05/09 05:59:49;;;;;;;8.43;4.03;;;7.20;91.20;;;;;;5040823;28;20029;-59
2022/05/09 06:02:15;;;;;;;11.35;5.25;;;7.30;91.00;;;;;;5041188;28;20485;-59
2022/05/09 06:04:41;;;;;;;13.63;4.47;;;7.40;91.00;;;;;;5036069;28;20044;-59
2022/05/09 06:07:06;;;;;;;6.88;4.40;;;7.40;90.80;;;;;;5038614;28;20477;-59
2022/05/09 06:09:32;;;;;;;14.25;4.20;;;7.50;90.70;;;;;;5041960;28;20029;-59
2022/05/09 06:12:00;;;;;;;9.40;4.55;;;7.60;90.80;;;;;;5030310;28;20128;-59
2022/05/09 06:14:26;;;;;;;8.10;4.47;;;7.70;90.90;;;;;;5028061;28;20472;-59
2022/05/09 06:16:51;;;;;;;12.25;4.60;;;7.70;90.70;;;;;;5035939;28;20093;-59
2022/05/09 06:19:17;;;;;;;7.95;4.68;;;7.90;90.60;;;;;;5035973;28;20037;-59
2022/05/09 06:21:43;;;;;;;12.38;4.63;;;7.90;90.50;;;;;;5035624;28;20059;-59
2022/05/09 06:24:09;;;;;;;9.23;4.60;;;8.00;90.50;;;;;;5031387;28;20026;-59
2022/05/09 06:26:35;;;;;;;16.13;5.50;;;8.10;90.60;;;;;;5036340;28;20120;-59
2022/05/09 06:29:06;;;;;;;13.55;4.53;;;8.30;90.50;;;;;;5031792;28;20026;-59
2022/05/09 06:31:35;;;;;;;18.00;4.80;;;8.30;90.60;;;;;;5036616;28;20022;-58
2022/05/09 06:34:02;;;;;;;19.40;5.30;;;8.30;90.50;;;;;;5034695;28;20041;-58
2022/05/09 06:36:31;;;;;;;14.38;5.43;;;8.40;90.80;;;;;;5035592;28;20030;-59
2022/05/09 06:38:57;;;;;;;10.88;5.30;;;8.50;90.70;;;;;;5038639;28;20029;-60
2022/05/09 06:41:23;;;;;;;11.88;5.20;;;8.60;90.70;;;;;;5037421;28;20390;-58
2022/05/09 06:43:49;;;;;;;14.10;5.43;;;8.70;90.60;;;;;;5040828;28;20028;-59
2022/05/09 06:46:16;;;;;;;13.73;6.00;;;8.90;90.40;;;;;;5033394;28;20029;-59
2022/05/09 06:48:42;;;;;;;10.90;4.95;;;9.00;90.40;;;;;;5028072;28;20041;-59
2022/05/09 06:51:07;;;;;;;9.63;5.03;;;9.10;90.40;;;;;;5037406;28;20067;-59
2022/05/09 06:53:33;;;;;;;11.82;5.38;;;9.30;90.30;;;;;;5036640;28;20108;-59
2022/05/09 06:55:59;;;;;;;14.23;4.90;;;9.40;90.10;;;;;;5033859;28;20036;-60
2022/05/09 06:58:25;;;;;;;13.00;5.10;;;9.50;90.20;;;;;;5037282;28;20419;-60
2022/05/09 07:00:53;;;;;;;9.15;6.07;;;9.70;90.30;;;;;;5041352;28;20539;-60
2022/05/09 07:03:20;;;;;;;8.02;5.43;;;9.80;90.20;;;;;;5034223;28;20033;-59
2022/05/09 07:05:48;;;;;;;9.73;5.00;;;9.90;90.50;;;;;;5039109;28;20021;-59
2022/05/09 07:08:14;;;;;;;17.40;5.63;;;9.90;90.10;;;;;;5051391;28;20028;-59
2022/05/09 07:10:41;;;;;;;13.23;5.95;;;10.10;90.20;;;;;;5051296;28;20033;-59
2022/05/09 07:13:07;;;;;;;17.25;6.78;;;10.10;90.30;;;;;;5036594;28;20402;-61
2022/05/09 07:15:34;;;;;;;16.23;5.47;;;10.20;90.40;;;;;;5049099;28;20017;-60
2022/05/09 07:18:00;;;;;;;15.48;6.55;;;10.40;90.30;;;;;;5037709;28;20029;-60
2022/05/09 07:20:28;;;;;;;27.45;11.60;;;10.40;90.30;;;;;;5045431;28;20056;-60
2022/05/09 07:22:56;;;;;;;15.27;6.75;;;10.50;90.50;;;;;;5038283;28;20031;-60
2022/05/09 07:25:23;;;;;;;18.42;7.47;;;10.60;90.50;;;;;;5045248;28;20035;-60
2022/05/09 07:27:50;;;;;;;12.73;7.78;;;10.70;90.40;;;;;;5039390;28;20029;-60
2022/05/09 07:30:18;;;;;;;22.33;7.78;;;10.80;90.60;;;;;;5048328;28;20037;-60
2022/05/09 07:32:44;;;;;;;13.77;6.75;;;10.90;90.50;;;;;;5046831;28;20033;-58
2022/05/09 07:35:14;;;;;;;19.98;8.38;;;11.00;90.50;;;;;;5050685;28;20033;-60
2022/05/09 07:37:40;;;;;;;17.48;7.80;;;11.10;90.30;;;;;;5050653;28;20376;-59
2022/05/09 07:40:11;;;;;;;18.48;8.23;;;11.20;90.60;;;;;;5040661;28;20078;-59
2022/05/09 07:42:37;;;;;;;18.42;7.18;;;11.30;90.40;;;;;;5034056;28;20018;-60
2022/05/09 07:45:04;;;;;;;14.75;7.15;;;11.50;89.90;;;;;;5033883;28;20734;-59
2022/05/09 07:47:30;;;;;;;19.88;8.10;;;11.50;90.20;;;;;;5049431;28;20032;-59
2022/05/09 07:49:56;;;;;;;18.33;6.38;;;11.60;90.20;;;;;;5027738;28;20041;-59
2022/05/09 07:52:24;;;;;;;14.32;6.72;;;11.70;90.10;;;;;;5024664;28;20045;-59
2022/05/09 07:54:50;;;;;;;16.20;6.93;;;12.00;88.60;;;;;;5036321;28;20487;-59
2022/05/09 07:57:17;;;;;;;18.63;6.70;;;12.30;88.20;;;;;;5029693;28;20480;-60
2022/05/09 07:59:43;;;;;;;14.52;7.90;;;12.40;88.00;;;;;;5041905;28;20037;-60
2022/05/09 08:02:09;;;;;;;15.20;7.18;;;12.50;87.40;;;;;;5037938;28;20389;-61
2022/05/09 08:04:35;;;;;;;13.68;6.40;;;12.60;86.90;;;;;;5034186;28;20051;-61
2022/05/09 08:07:02;;;;;;;18.50;6.32;;;12.80;86.70;;;;;;5048396;28;20025;-59
2022/05/09 08:09:28;;;;;;;22.90;5.82;;;13.00;85.70;;;;;;5047811;28;20025;-59
2022/05/09 08:11:54;;;;;;;19.95;7.30;;;13.10;85.10;;;;;;5034078;28;20055;-60
2022/05/09 08:14:20;;;;;;;11.80;6.70;;;13.20;84.90;;;;;;5048657;28;20033;-60
2022/05/09 08:16:45;;;;;;;14.52;6.00;;;13.40;84.10;;;;;;5039432;28;20475;-59
2022/05/09 08:19:12;;;;;;;14.27;5.95;;;13.40;84.80;;;;;;5049993;28;20033;-59
2022/05/09 08:21:38;;;;;;;17.38;5.88;;;13.50;84.00;;;;;;5045268;28;20033;-60
2022/05/09 08:24:08;;;;;;;9.65;5.10;;;13.60;82.80;;;;;;5046087;28;20025;-61
2022/05/09 08:26:34;;;;;;;22.60;7.28;;;13.70;82.30;;;;;;5034950;28;20476;-59
2022/05/09 08:29:00;;;;;;;16.50;6.95;;;13.90;82.10;;;;;;5044323;28;20037;-59
2022/05/09 08:31:27;;;;;;;17.63;5.90;;;14.10;81.50;;;;;;5046287;28;20135;-60
2022/05/09 08:33:53;;;;;;;16.77;5.95;;;14.20;81.70;;;;;;5039906;28;20389;-59
2022/05/09 08:39:22;;;;;;;18.08;4.88;;;14.20;81.70;;;;;;4978220;28;20130;-59
2022/05/09 08:41:55;;;;;;;16.67;5.68;;;14.40;80.80;;;;;;4993257;28;20085;-60
2022/05/09 08:45:08;;;;;;;16.15;5.93;;;14.60;78.30;;;;;;4994689;28;20205;-60
2022/05/09 08:47:55;;;;;;;15.30;5.00;;;15.00;75.10;;;;;;4932641;29;20032;-60
2022/05/09 08:50:21;;;;;;;16.80;5.43;;;15.20;73.70;;;;;;4937268;29;20080;-60
2022/05/09 08:52:50;;;;;;;8.13;3.72;;;15.40;71.30;;;;;;4939385;29;20262;-60
2022/05/09 08:55:35;;;;;;;11.63;4.32;;;15.60;71.40;;;;;;4925934;29;20031;-60
2022/05/09 08:58:16;;;;;;;8.43;3.97;;;15.70;68.00;;;;;;4927965;29;20051;-60
2022/05/09 09:00:42;;;;;;;8.48;3.17;;;15.80;66.20;;;;;;4926455;29;20195;-60
2022/05/09 09:03:22;;;;;;;9.35;3.50;;;15.90;61.60;;;;;;4928237;29;20484;-60
2022/05/09 09:05:52;;;;;;;7.70;3.15;;;16.10;61.80;;;;;;4932187;29;20028;-60
2022/05/09 09:08:37;;;;;;;10.07;3.05;;;16.20;60.00;;;;;;4944317;29;20085;-60
2022/05/09 09:11:05;;;;;;;8.57;3.00;;;16.10;59.10;;;;;;4941988;29;20039;-61
2022/05/09 09:13:56;;;;;;;10.18;3.55;;;16.30;59.90;;;;;;4959858;28;20046;-60
2022/05/09 09:16:40;;;;;;;4.65;2.45;;;16.40;59.20;;;;;;4970227;28;20141;-60
2022/05/09 09:19:27;;;;;;;11.93;4.03;;;16.10;59.10;;;;;;4986062;28;20022;-59
2022/05/09 09:22:05;;;;;;;11.50;3.72;;;16.00;59.00;;;;;;4964071;28;20118;-59
2022/05/09 09:24:33;;;;;;;9.48;4.13;;;16.20;59.70;;;;;;5037163;28;20044;-60
2022/05/09 09:27:44;;;;;;;10.30;3.28;;;16.40;58.30;;;;;;5036828;28;20082;-60
2022/05/09 09:30:16;;;;;;;18.17;3.80;;;16.40;58.10;;;;;;5032233;28;20072;-60
2022/05/09 09:32:50;;;;;;;13.25;3.75;;;16.40;58.10;;;;;;5036597;28;20584;-60
2022/05/09 09:35:30;;;;;;;10.77;3.60;;;16.30;57.90;;;;;;5045072;28;20455;-59
2022/05/09 09:38:16;;;;;;;10.18;3.17;;;16.30;58.60;;;;;;5043774;28;20484;-60
2022/05/09 09:40:42;;;;;;;11.32;3.53;;;16.50;58.10;;;;;;5047898;28;20040;-60
2022/05/09 09:43:08;;;;;;;13.02;4.22;;;16.50;57.80;;;;;;5037037;28;20472;-60
2022/05/09 09:45:40;;;;;;;14.57;4.18;;;16.60;58.20;;;;;;5045131;28;20468;-60
2022/05/09 09:48:18;;;;;;;14.50;3.92;;;16.70;58.40;;;;;;5044816;28;20521;-60
2022/05/09 09:50:52;;;;;;;8.05;3.70;;;16.80;57.90;;;;;;5043533;28;20074;-60
2022/05/09 09:53:35;;;;;;;13.35;4.45;;;16.90;57.90;;;;;;5029407;28;20044;-60
2022/05/09 09:56:20;;;;;;;10.52;4.18;;;17.00;57.40;;;;;;5035484;28;20025;-60
2022/05/09 09:58:48;;;;;;;17.45;4.72;;;16.90;57.50;;;;;;5014007;28;20021;-58
2022/05/09 10:01:25;;;;;;;11.43;4.32;;;17.00;57.80;;;;;;5046877;28;20033;-61
2022/05/09 10:04:25;;;;;;;13.77;4.00;;;17.20;57.40;;;;;;5045453;28;20025;-59
2022/05/09 10:07:07;;;;;;;10.13;3.88;;;17.40;56.70;;;;;;5041994;28;20051;-60
2022/05/09 10:10:02;;;;;;;8.68;4.38;;;17.50;57.40;;;;;;5045047;28;20025;-60
2022/05/09 10:12:30;;;;;;;8.80;3.80;;;17.60;56.70;;;;;;5022957;28;20048;-59
2022/05/09 10:14:57;;;;;;;10.77;3.95;;;17.70;56.90;;;;;;5046779;28;20033;-59
2022/05/09 10:17:25;;;;;;;11.45;3.40;;;17.80;56.60;;;;;;5045590;28;20025;-60
2022/05/09 10:19:53;;;;;;;14.98;3.85;;;18.10;56.60;;;;;;5050425;28;20021;-59
2022/05/09 10:25:36;;;;;;;11.77;3.63;;;18.50;56.00;;;;;;5041688;28;20055;-59
2022/05/09 10:28:16;;;;;;;;;;;18.50;55.20;;;;;;5048362;28;20118;-60
2022/05/09 10:30:52;;;;;;;9.52;3.88;;;18.60;55.20;;;;;;5048523;28;19909;-59
2022/05/09 10:33:17;;;;;;;12.93;3.92;;;18.70;54.90;;;;;;5029280;28;20060;-61
2022/05/09 10:35:49;;;;;;;13.95;4.65;;;18.70;54.90;;;;;;5046369;28;20469;-60
2022/05/09 10:38:37;;;;;;;12.75;3.95;;;18.90;54.80;;;;;;5051073;28;20037;-60
2022/05/09 10:41:23;;;;;;;9.35;3.13;;;19.10;53.60;;;;;;5047891;28;20021;-61
2022/05/09 10:44:27;;;;;;;10.73;3.72;;;19.20;53.30;;;;;;5036512;28;20037;-59
2022/05/09 10:47:08;;;;;;;8.77;4.18;;;19.40;54.10;;;;;;5047681;28;20593;-61
2022/05/09 10:49:46;;;;;;;10.65;3.97;;;19.50;53.10;;;;;;5027662;28;20037;-59
2022/05/09 10:52:21;;;;;;;9.27;3.88;;;19.50;52.90;;;;;;5042296;28;20116;-60
2022/05/09 10:55:05;;;;;;;10.32;3.40;;;19.80;52.30;;;;;;5018963;28;20029;-60
2022/05/09 10:57:50;;;;;;;12.52;4.25;;;19.60;51.20;;;;;;5045044;28;20043;-60
2022/05/09 11:00:21;;;;;;;11.55;4.13;;;19.70;51.20;;;;;;5044450;28;20120;-60
2022/05/09 11:03:13;;;;;;;12.48;3.83;;;19.80;51.10;;;;;;5045269;28;20112;-60
2022/05/09 11:06:13;;;;;;;9.13;3.22;;;20.30;51.30;;;;;;5036372;28;20041;-60
2022/05/09 11:08:57;;;;;;;10.32;3.20;;;20.50;49.90;;;;;;5046348;28;20029;-61
2022/05/09 11:11:26;;;;;;;13.15;4.57;;;21.20;47.60;;;;;;5034166;28;20122;-60
2022/05/09 11:13:57;;;;;;;8.68;4.28;;;21.40;47.00;;;;;;5046087;28;20147;-60
2022/05/09 11:16:33;;;;;;;11.20;3.60;;;21.60;46.90;;;;;;5051313;28;20025;-60
2022/05/09 11:19:25;;;;;;;9.77;3.90;;;21.60;46.30;;;;;;5049656;28;20487;-61
2022/05/09 11:22:11;;;;;;;11.93;3.80;;;22.20;45.80;;;;;;5023981;28;20025;-60
2022/05/09 11:24:51;;;;;;;6.68;3.30;;;21.90;45.10;;;;;;5050516;28;20037;-61
2022/05/09 11:27:29;;;;;;;8.82;4.43;;;22.00;45.10;;;;;;5050664;28;20029;-60
2022/05/09 11:30:13;;;;;;;11.38;4.43;;;22.20;44.20;;;;;;5028877;28;20052;-61
2022/05/09 11:32:42;;;;;;;13.10;4.40;;;22.30;44.20;;;;;;5049330;28;20059;-61
2022/05/09 11:35:07;;;;;;;11.82;3.55;;;21.90;44.60;;;;;;5047043;28;20033;-60
2022/05/09 11:37:42;;;;;;;11.45;3.95;;;22.10;44.40;;;;;;5050846;28;20117;-61
2022/05/09 11:40:10;;;;;;;10.55;4.30;;;21.60;44.70;;;;;;5031094;28;20476;-60
2022/05/09 11:43:29;;;;;;;13.65;4.22;;;21.20;45.40;;;;;;5050057;28;20048;-61
2022/05/09 11:46:18;;;;;;;10.48;3.90;;;21.20;46.00;;;;;;5044005;28;20107;-61
2022/05/09 11:48:54;;;;;;;13.98;4.30;;;21.20;45.80;;;;;;5017352;28;20497;-60
2022/05/09 11:51:22;;;;;;;8.88;3.63;;;21.10;45.80;;;;;;5042181;28;20032;-60
2022/05/09 11:53:59;;;;;;;15.15;5.07;;;21.10;45.90;;;;;;5031078;28;20080;-59
2022/05/09 11:56:25;;;;;;;11.27;4.35;;;21.20;46.00;;;;;;5039818;28;20504;-60
2022/05/09 11:58:51;;;;;;;11.52;4.40;;;21.30;46.60;;;;;;5031418;28;20025;-60
2022/05/09 12:01:54;;;;;;;10.70;3.90;;;21.40;46.00;;;;;;5033412;28;20258;-60
2022/05/09 12:04:47;;;;;;;8.65;4.22;;;21.80;46.40;;;;;;5033678;28;20461;-60
2022/05/09 12:07:28;;;;;;;9.00;4.35;;;21.90;45.80;;;;;;5028345;28;20382;-59
2022/05/09 12:10:11;;;;;;;10.30;4.20;;;22.40;44.70;;;;;;5036196;28;20068;-60
2022/05/09 12:12:37;;;;;;;10.43;4.20;;;22.50;44.10;;;;;;5042153;28;20041;-61
2022/05/09 12:15:05;;;;;;;6.28;4.25;;;22.70;44.20;;;;;;5039866;28;20063;-60
2022/05/09 12:17:37;;;;;;;12.45;4.70;;;22.30;44.20;;;;;;5044715;28;20472;-59
2022/05/09 12:20:36;;;;;;;11.82;4.70;;;22.50;44.10;;;;;;5034539;28;20033;-60
2022/05/09 12:23:07;;;;;;;7.75;4.45;;;22.70;44.00;;;;;;5029229;28;20079;-60
2022/05/09 12:25:36;;;;;;;14.20;5.13;;;22.90;43.70;;;;;;5024564;28;20554;-60
2022/05/09 12:28:27;;;;;;;9.40;4.28;;;22.80;43.90;;;;;;5033191;28;20021;-60
2022/05/09 12:31:01;;;;;;;13.30;4.57;;;22.30;44.00;;;;;;5032784;28;20022;-60
2022/05/09 12:33:39;;;;;;;13.20;4.75;;;22.10;45.30;;;;;;5028830;28;20133;-60
2022/05/09 12:36:07;;;;;;;13.85;5.10;;;21.80;45.90;;;;;;5017222;28;20044;-59
2022/05/09 12:38:37;;;;;;;13.05;4.30;;;21.50;46.90;;;;;;5027865;28;20112;-59
2022/05/09 12:41:16;;;;;;;9.93;4.43;;;21.50;46.70;;;;;;5041766;28;20021;-59
2022/05/09 12:43:50;;;;;;;15.18;4.82;;;21.60;46.50;;;;;;5030187;28;20029;-60
2022/05/09 12:46:22;;;;;;;12.60;4.88;;;21.30;46.90;;;;;;5030403;28;20060;-60
2022/05/09 12:48:48;;;;;;;10.48;4.78;;;21.70;46.50;;;;;;5033828;28;20026;-60
2022/05/09 12:51:15;;;;;;;10.05;5.20;;;22.20;45.00;;;;;;5042292;28;20132;-60
2022/05/09 12:53:42;;;;;;;15.75;5.68;;;22.60;44.40;;;;;;5033249;28;20045;-60
2022/05/09 12:56:18;;;;;;;9.70;4.60;;;22.70;44.20;;;;;;5034888;28;20021;-60
2022/05/09 12:58:47;;;;;;;12.57;5.00;;;22.70;44.70;;;;;;5031901;28;20037;-60
2022/05/09 13:01:23;;;;;;;9.30;5.00;;;23.00;43.70;;;;;;5030363;28;20021;-59
2022/05/09 13:03:56;;;;;;;19.40;5.35;;;23.30;43.30;;;;;;5031736;28;20108;-60
2022/05/09 13:06:29;;;;;;;13.25;5.28;;;23.70;42.20;;;;;;5024868;28;20028;-60
2022/05/09 13:08:55;;;;;;;17.38;5.55;;;24.50;40.60;;;;;;5034537;28;20025;-60
2022/05/09 13:11:32;;;;;;;13.20;4.97;;;24.20;40.40;;;;;;5033783;28;20135;-60
2022/05/09 13:14:18;;;;;;;11.25;5.15;;;23.90;41.40;;;;;;5031782;28;20048;-60
2022/05/09 13:16:54;;;;;;;10.45;5.10;;;23.80;41.10;;;;;;5025499;28;20049;-60
2022/05/09 13:19:20;;;;;;;13.43;5.30;;;23.60;41.70;;;;;;5046755;28;20032;-60